Time;durP1;ratioP1;P1;durP2;ratioP2;P2;SDS_P1;SDS_P2;PMS_P1;PMS_P2;Temp;Humidity;BMP_temperature;BMP_pressure;BME280_temperature;BME280_humidity;BME280_pressure;Samples;Min_cycle;Max_cycle;Signal;HPM_P1;HPM_P2
2023/08/25 00:00:58;;;;;;;15.48;11.13;;;;;;;21.71;100.00;97414.53;5048450;28;20032;-81
2023/08/25 00:03:33;;;;;;;18.20;12.07;;;;;;;21.68;100.00;97410.28;5029752;28;20071;-81
2023/08/25 00:05:58;;;;;;;17.25;11.30;;;;;;;21.64;100.00;97417.06;5047361;28;20074;-81
2023/08/25 00:08:24;;;;;;;17.08;12.00;;;;;;;21.69;100.00;97417.41;5039891;28;20021;-82
2023/08/25 00:10:50;;;;;;;17.67;11.90;;;;;;;21.70;100.00;97429.16;5040172;28;20111;-81
2023/08/25 00:13:16;;;;;;;16.70;11.48;;;;;;;21.65;100.00;97426.09;5037003;28;20054;-82
2023/08/25 00:15:42;;;;;;;18.40;12.25;;;;;;;21.63;100.00;97434.41;5041107;28;20017;-82
2023/08/25 00:18:07;;;;;;;17.33;12.30;;;;;;;21.60;100.00;97429.31;5020438;28;20025;-82
2023/08/25 00:20:33;;;;;;;19.48;12.82;;;;;;;21.56;100.00;97436.94;5044586;28;20461;-82
2023/08/25 00:22:58;;;;;;;17.10;12.32;;;;;;;21.53;100.00;97425.56;5043081;28;20117;-81
2023/08/25 00:25:24;;;;;;;21.13;13.05;;;;;;;21.48;100.00;97428.78;5044373;28;20033;-81
2023/08/25 00:27:49;;;;;;;16.02;12.07;;;;;;;21.43;100.00;97430.28;5015072;28;20117;-82
2023/08/25 00:30:15;;;;;;;22.33;12.25;;;;;;;21.36;100.00;97432.81;5036207;28;20022;-82
2023/08/25 00:32:41;;;;;;;17.25;12.02;;;;;;;21.27;100.00;97428.38;5038023;28;20136;-82
2023/08/25 00:35:07;;;;;;;17.73;12.00;;;;;;;21.18;100.00;97429.34;5030912;28;20499;-82
2023/08/25 00:37:32;;;;;;;16.65;12.80;;;;;;;21.15;100.00;97426.09;5041928;28;20067;-82
2023/08/25 00:39:58;;;;;;;18.20;13.57;;;;;;;21.07;100.00;97422.28;5040796;28;20049;-82
2023/08/25 00:42:24;;;;;;;20.17;12.52;;;;;;;21.04;100.00;97425.34;5040892;28;20056;-82
2023/08/25 00:44:50;;;;;;;15.95;12.18;;;;;;;21.05;100.00;97429.78;5034714;28;20082;-83
2023/08/25 00:47:15;;;;;;;18.52;13.23;;;;;;;21.05;100.00;97427.06;5047114;28;20492;-82
2023/08/25 00:49:41;;;;;;;16.60;12.55;;;;;;;21.04;100.00;97438.13;5039618;28;20548;-82
2023/08/25 00:52:07;;;;;;;18.48;12.73;;;;;;;21.01;100.00;97439.25;5044950;28;20137;-82
2023/08/25 00:54:36;;;;;;;16.73;12.93;;;;;;;21.04;100.00;97443.56;5037963;28;20112;-82
2023/08/25 00:57:02;;;;;;;17.00;12.68;;;;;;;20.99;100.00;97424.97;5040011;28;20021;-81
2023/08/25 00:59:31;;;;;;;18.80;12.85;;;;;;;20.99;100.00;97432.28;5025290;28;20480;-81
2023/08/25 01:01:57;;;;;;;17.80;12.65;;;;;;;21.00;100.00;97429.41;5045320;28;20029;-81
2023/08/25 01:04:22;;;;;;;18.83;12.75;;;;;;;21.02;100.00;97435.53;5042491;28;20025;-83
2023/08/25 01:06:48;;;;;;;22.13;14.13;;;;;;;21.00;100.00;97432.13;5022297;28;20025;-81
2023/08/25 01:09:14;;;;;;;19.42;13.20;;;;;;;20.98;100.00;97427.84;5039515;28;20099;-81
2023/08/25 01:12:08;;;;;;;23.05;13.55;;;;;;;21.05;100.00;97434.34;5040840;28;20025;-81
2023/08/25 01:14:54;;;;;;;21.42;13.40;;;;;;;21.04;100.00;97438.94;5049287;27;20101;-81
2023/08/25 01:17:28;;;;;;;22.67;14.13;;;;;;;21.02;100.00;97437.41;5033924;28;20021;-81
2023/08/25 01:20:14;;;;;;;20.80;14.57;;;;;;;21.08;100.00;97445.81;5039236;28;20036;-83
2023/08/25 01:22:48;;;;;;;20.55;13.27;;;;;;;21.03;100.00;97448.13;5034388;28;20025;-82
2023/08/25 01:25:27;;;;;;;21.20;14.95;;;;;;;21.05;100.00;97445.22;5037072;28;20533;-81
2023/08/25 01:27:58;;;;;;;16.25;12.50;;;;;;;20.98;100.00;97445.03;5024160;28;20482;-81
2023/08/25 01:30:26;;;;;;;19.65;12.98;;;;;;;21.01;100.00;97452.84;5027289;28;20124;-81
2023/08/25 01:32:51;;;;;;;62.47;38.38;;;;;;;21.08;100.00;97450.34;5037997;28;20040;-80
2023/08/25 01:35:19;;;;;;;21.95;14.30;;;;;;;21.06;100.00;97450.53;5036612;28;20416;-80
2023/08/25 01:37:55;;;;;;;17.08;13.15;;;;;;;21.09;100.00;97452.09;5021691;28;20097;-81
2023/08/25 01:41:00;;;;;;;26.55;14.20;;;;;;;21.18;100.00;97451.13;5029479;28;20036;-82
2023/08/25 01:43:29;;;;;;;17.48;13.15;;;;;;;21.15;100.00;97456.88;5003655;28;20409;-80
2023/08/25 01:45:54;;;;;;;19.55;13.93;;;;;;;21.15;100.00;97450.59;5020051;28;20112;-81
2023/08/25 01:48:21;;;;;;;21.45;13.23;;;;;;;21.15;100.00;97447.88;5041012;28;20448;-81
2023/08/25 01:50:46;;;;;;;24.17;13.35;;;;;;;21.05;100.00;97447.94;5032507;28;20114;-80
2023/08/25 01:53:12;;;;;;;17.50;13.25;;;;;;;20.87;100.00;97445.31;5040802;28;20053;-79
2023/08/25 01:55:38;;;;;;;23.20;13.20;;;;;;;20.73;100.00;97445.06;5038412;28;20021;-80
2023/08/25 01:58:03;;;;;;;24.75;16.08;;;;;;;20.69;100.00;97439.09;5036850;28;20495;-81
2023/08/25 02:00:29;;;;;;;19.08;13.10;;;;;;;20.66;100.00;97433.97;5036333;28;20026;-80
2023/08/25 02:02:55;;;;;;;21.10;14.43;;;;;;;20.65;100.00;97432.25;5022598;28;20052;-80
2023/08/25 02:05:21;;;;;;;23.88;14.05;;;;;;;20.69;100.00;97430.94;5021126;28;20033;-80
2023/08/25 02:07:47;;;;;;;19.60;14.05;;;;;;;20.72;100.00;97433.34;5043173;28;20463;-81
2023/08/25 02:10:12;;;;;;;17.67;13.70;;;;;;;20.74;100.00;97438.59;5038365;28;20108;-80
2023/08/25 02:12:38;;;;;;;23.20;14.50;;;;;;;20.79;100.00;97444.44;5036115;28;20025;-80
2023/08/25 02:15:04;;;;;;;18.33;13.63;;;;;;;20.75;100.00;97441.16;5034661;28;20412;-81
2023/08/25 02:17:29;;;;;;;23.35;15.38;;;;;;;20.76;100.00;97442.88;5034552;28;20078;-81
2023/08/25 02:19:55;;;;;;;23.02;14.05;;;;;;;20.79;100.00;97444.44;5040332;28;20048;-81
2023/08/25 02:22:20;;;;;;;21.35;14.15;;;;;;;20.79;100.00;97439.84;5039751;28;20029;-81
2023/08/25 02:24:46;;;;;;;25.05;15.02;;;;;;;20.78;100.00;97437.28;5038119;28;20037;-81
2023/08/25 02:27:11;;;;;;;23.85;14.48;;;;;;;20.67;100.00;97434.84;5019453;28;20128;-82
2023/08/25 02:29:37;;;;;;;27.60;14.13;;;;;;;20.65;100.00;97443.13;5039371;28;20380;-81
2023/08/25 02:32:02;;;;;;;20.20;14.02;;;;;;;20.61;100.00;97443.63;5035102;28;20070;-81
2023/08/25 02:34:28;;;;;;;22.90;14.80;;;;;;;20.43;100.00;97449.09;5038967;28;20486;-81
2023/08/25 02:36:54;;;;;;;30.90;13.68;;;;;;;20.43;100.00;97440.94;5033819;28;20036;-81
2023/08/25 02:39:20;;;;;;;26.33;13.95;;;;;;;20.50;100.00;97452.88;5036951;28;20040;-81
2023/08/25 02:41:45;;;;;;;19.13;14.23;;;;;;;20.52;100.00;97448.13;5034532;28;20029;-81
2023/08/25 02:44:11;;;;;;;23.55;14.27;;;;;;;20.40;100.00;97446.69;5035895;28;20084;-81
2023/08/25 02:46:37;;;;;;;19.73;13.73;;;;;;;20.32;100.00;97450.22;5031129;28;20116;-81
2023/08/25 02:49:03;;;;;;;25.98;14.98;;;;;;;20.25;100.00;97442.81;5037879;28;20469;-81
2023/08/25 02:51:29;;;;;;;23.88;15.10;;;;;;;20.14;100.00;97449.34;5035832;28;20105;-81
2023/08/25 02:53:54;;;;;;;21.73;13.85;;;;;;;20.27;100.00;97454.41;5035932;28;20041;-81
2023/08/25 02:56:20;;;;;;;24.80;15.48;;;;;;;20.30;100.00;97456.81;5041215;28;20025;-81
2023/08/25 02:58:45;;;;;;;29.20;14.70;;;;;;;20.25;100.00;97456.38;5037968;28;20063;-81
2023/08/25 03:01:11;;;;;;;22.30;14.48;;;;;;;20.25;100.00;97472.69;5039899;28;20097;-81
2023/08/25 03:03:37;;;;;;;23.95;14.98;;;;;;;20.23;100.00;97469.28;5040132;28;20026;-80
2023/08/25 03:06:03;;;;;;;22.58;15.23;;;;;;;20.21;100.00;97460.44;5041066;28;20044;-81
2023/08/25 03:08:28;;;;;;;27.90;14.98;;;;;;;20.15;100.00;97456.47;5039418;28;20033;-79
2023/08/25 03:10:54;;;;;;;29.55;16.00;;;;;;;20.16;100.00;97465.47;5036962;28;20021;-81
2023/08/25 03:13:19;;;;;;;27.67;15.85;;;;;;;20.17;100.00;97476.19;5041310;28;20108;-82
2023/08/25 03:15:48;;;;;;;29.08;15.93;;;;;;;20.12;100.00;97473.09;5040732;28;20025;-82
2023/08/25 03:18:14;;;;;;;29.27;15.65;;;;;;;20.12;100.00;97483.13;5045577;28;20112;-82
2023/08/25 03:20:40;;;;;;;25.20;15.80;;;;;;;20.09;100.00;97476.09;5041963;28;20055;-81
2023/08/25 03:23:05;;;;;;;21.10;14.10;;;;;;;20.07;100.00;97474.56;5037152;28;20096;-82
2023/08/25 03:25:37;;;;;;;29.50;15.10;;;;;;;20.00;100.00;97474.31;5035382;28;20400;-81
2023/08/25 03:28:04;;;;;;;28.27;14.52;;;;;;;19.88;100.00;97481.84;5032613;28;20021;-81
2023/08/25 03:30:30;;;;;;;23.67;13.57;;;;;;;19.78;100.00;97477.53;5029932;28;20028;-82
2023/08/25 03:32:55;;;;;;;21.98;14.80;;;;;;;19.68;100.00;97474.88;5037941;28;20203;-80
2023/08/25 03:35:21;;;;;;;21.45;15.20;;;;;;;19.65;100.00;97480.59;5040110;28;20021;-80
2023/08/25 03:37:46;;;;;;;26.00;15.48;;;;;;;19.60;100.00;97477.47;5031640;28;20048;-80
2023/08/25 03:40:12;;;;;;;24.95;15.85;;;;;;;19.63;100.00;97489.88;5031711;28;20162;-81
2023/08/25 03:42:37;;;;;;;24.50;17.88;;;;;;;19.67;100.00;97494.88;5039623;28;20021;-81
2023/08/25 03:45:05;;;;;;;37.78;20.58;;;;;;;19.78;100.00;97491.91;5034101;28;20029;-81
2023/08/25 03:47:30;;;;;;;24.23;15.75;;;;;;;19.81;100.00;97496.22;5033232;28;20369;-81
2023/08/25 03:49:56;;;;;;;38.15;16.65;;;;;;;19.82;100.00;97495.19;5047249;28;20033;-81
2023/08/25 03:52:21;;;;;;;34.20;16.98;;;;;;;19.76;100.00;97488.53;5047174;28;20032;-81
2023/08/25 03:54:47;;;;;;;54.17;18.90;;;;;;;19.85;100.00;97495.75;5032232;28;20025;-81
2023/08/25 03:57:13;;;;;;;44.80;19.40;;;;;;;19.87;100.00;97492.88;5042867;28;20457;-81
2023/08/25 03:59:38;;;;;;;40.22;17.05;;;;;;;19.94;100.00;97497.53;5039093;28;20053;-80
2023/08/25 04:02:04;;;;;;;41.03;17.85;;;;;;;20.00;100.00;97485.19;5031424;28;20018;-82
2023/08/25 04:04:31;;;;;;;32.45;17.17;;;;;;;19.99;100.00;97495.19;5014290;28;20132;-82
2023/08/25 04:06:57;;;;;;;31.60;15.52;;;;;;;19.97;100.00;97497.22;5028927;28;20398;-81
2023/08/25 04:09:22;;;;;;;32.92;16.40;;;;;;;19.99;100.00;97503.34;5020464;28;20033;-80
2023/08/25 04:11:48;;;;;;;39.22;15.23;;;;;;;20.09;100.00;97510.59;5042543;28;20029;-80
2023/08/25 04:14:14;;;;;;;37.83;15.40;;;;;;;20.11;100.00;97503.13;5020639;28;20044;-80
2023/08/25 04:16:40;;;;;;;35.92;14.75;;;;;;;20.15;100.00;97513.50;5039835;28;20049;-80
2023/08/25 04:19:05;;;;;;;37.47;15.52;;;;;;;20.23;100.00;97519.03;5022094;28;20034;-82
2023/08/25 04:21:31;;;;;;;50.13;17.92;;;;;;;20.31;100.00;97526.44;5038087;28;20064;-82
2023/08/25 04:23:56;;;;;;;30.23;15.13;;;;;;;20.32;100.00;97522.72;5016281;28;20028;-82
2023/08/25 04:26:22;;;;;;;27.88;14.68;;;;;;;20.42;100.00;97518.06;5045178;28;20025;-81
2023/08/25 04:28:47;;;;;;;26.17;13.73;;;;;;;20.43;100.00;97514.31;5031652;28;20033;-80
2023/08/25 04:31:13;;;;;;;35.33;14.90;;;;;;;20.41;100.00;97510.91;5040613;28;20041;-82
2023/08/25 04:33:38;;;;;;;29.98;14.55;;;;;;;20.52;100.00;97513.38;5048790;28;20025;-80
2023/08/25 04:36:04;;;;;;;20.17;14.95;;;;;;;20.65;100.00;97513.81;5029134;28;20100;-81
2023/08/25 04:38:30;;;;;;;23.80;14.07;;;;;;;20.70;100.00;97514.22;5027935;28;20178;-81
2023/08/25 04:40:55;;;;;;;32.47;15.38;;;;;;;20.82;100.00;97510.22;5048895;28;20153;-81
2023/08/25 04:43:20;;;;;;;30.20;15.13;;;;;;;20.91;100.00;97508.41;5038356;28;20101;-81
2023/08/25 04:45:46;;;;;;;27.08;15.73;;;;;;;20.92;100.00;97505.50;5029557;28;20479;-84
2023/08/25 04:48:15;;;;;;;57.75;16.20;;;;;;;20.99;100.00;97503.88;5037127;28;20033;-83
2023/08/25 04:50:40;;;;;;;53.78;15.32;;;;;;;21.06;100.00;97518.53;5048407;28;20039;-81
2023/08/25 04:53:07;;;;;;;43.05;16.58;;;;;;;21.11;100.00;97526.22;5064371;28;20025;-84
2023/08/25 04:55:35;;;;;;;38.75;15.85;;;;;;;21.15;100.00;97522.19;5032030;28;20073;-83
2023/08/25 04:58:03;;;;;;;37.08;15.25;;;;;;;21.26;100.00;97532.78;5035031;28;20036;-82
2023/08/25 05:00:29;;;;;;;35.53;15.85;;;;;;;21.29;100.00;97523.44;5034173;28;20033;-83
2023/08/25 05:02:54;;;;;;;40.83;16.85;;;;;;;21.48;100.00;97534.94;5044460;28;20035;-83
2023/08/25 05:05:20;;;;;;;37.88;16.08;;;;;;;21.80;100.00;97533.38;5031489;28;20511;-81
2023/08/25 05:07:48;;;;;;;29.42;14.50;;;;;;;21.95;100.00;97542.63;5026062;28;20094;-82
2023/08/25 05:10:19;;;;;;;31.13;14.30;;;;;;;21.91;100.00;97536.66;5043779;28;20037;-84
2023/08/25 05:12:45;;;;;;;24.20;13.53;;;;;;;21.97;100.00;97540.59;5036521;28;20028;-81
2023/08/25 05:15:10;;;;;;;31.15;13.57;;;;;;;22.16;100.00;97534.84;5045867;28;20025;-83
2023/08/25 05:17:36;;;;;;;37.15;14.60;;;;;;;22.51;100.00;97531.00;5027071;28;20484;-82
2023/08/25 05:20:05;;;;;;;28.75;15.15;;;;;;;22.65;100.00;97538.50;5024743;28;20017;-83
2023/08/25 05:22:31;;;;;;;23.88;13.80;;;;;;;22.79;100.00;97542.44;5024676;28;20017;-83
2023/08/25 05:24:56;;;;;;;22.20;13.68;;;;;;;22.86;100.00;97538.84;5025992;28;20037;-83
2023/08/25 05:27:22;;;;;;;19.40;14.20;;;;;;;22.90;100.00;97526.56;5024511;28;20044;-82
2023/08/25 05:29:48;;;;;;;26.70;15.43;;;;;;;22.88;100.00;97525.91;5007969;28;20021;-81
2023/08/25 05:32:13;;;;;;;43.20;19.52;;;;;;;22.92;100.00;97538.16;5029564;27;20416;-81
2023/08/25 05:34:39;;;;;;;23.30;14.85;;;;;;;23.13;100.00;97527.53;5045767;28;20036;-81
2023/08/25 05:37:05;;;;;;;22.60;13.27;;;;;;;23.33;100.00;97519.81;5024975;28;20089;-79
2023/08/25 05:39:30;;;;;;;31.20;15.10;;;;;;;23.48;100.00;97528.16;5024385;28;20404;-82
2023/08/25 05:41:58;;;;;;;35.08;15.48;;;;;;;24.31;100.00;97531.19;5026661;28;20025;-81
2023/08/25 05:44:24;;;;;;;26.75;12.93;;;;;;;25.84;100.00;97516.06;5024177;28;20026;-82
2023/08/25 05:46:49;;;;;;;20.38;12.93;;;;;;;27.01;100.00;97503.84;5040648;28;20025;-82
2023/08/25 05:49:15;;;;;;;25.55;13.35;;;;;;;27.77;100.00;97506.50;5028015;28;20017;-82
2023/08/25 05:51:40;;;;;;;23.10;14.20;;;;;;;28.57;100.00;97508.50;5031216;28;20400;-82
2023/08/25 05:54:06;;;;;;;20.77;13.20;;;;;;;29.07;100.00;97496.09;5035601;28;20104;-83
2023/08/25 05:56:31;;;;;;;20.38;13.20;;;;;;;29.69;100.00;97500.22;5045193;28;20025;-84
2023/08/25 05:59:00;;;;;;;18.30;12.48;;;;;;;29.65;100.00;97501.75;5043879;28;20021;-84
2023/08/25 06:01:26;;;;;;;18.45;11.90;;;;;;;29.93;100.00;97499.56;5024003;28;20192;-82
2023/08/25 06:03:51;;;;;;;22.17;12.65;;;;;;;30.80;100.00;97501.63;5023833;28;20544;-83
2023/08/25 06:06:17;;;;;;;29.83;14.40;;;;;;;31.08;97.11;97491.91;5023652;28;20036;-83
2023/08/25 06:08:42;;;;;;;22.50;12.40;;;;;;;31.39;96.68;97502.03;5023987;28;20448;-84
2023/08/25 06:11:08;;;;;;;18.75;11.60;;;;;;;32.43;89.53;97488.06;5012424;28;20037;-85
2023/08/25 06:13:33;;;;;;;45.72;13.60;;;;;;;33.37;82.10;97487.28;5023643;28;20021;-84
2023/08/25 06:15:59;;;;;;;80.45;17.42;;;;;;;33.89;77.30;97481.84;5023625;28;20060;-82
2023/08/25 06:18:28;;;;;;;25.98;11.43;;;;;;;34.42;71.38;97476.03;5027020;28;20064;-83
2023/08/25 06:20:54;;;;;;;20.85;11.68;;;;;;;34.10;69.91;97472.88;5040575;28;20117;-82
2023/08/25 06:23:19;;;;;;;13.77;11.07;;;;;;;33.62;73.69;97471.25;5034938;28;20502;-82
2023/08/25 06:25:45;;;;;;;20.63;10.98;;;;;;;33.05;77.62;97470.09;5038936;28;20113;-83
2023/08/25 06:28:11;;;;;;;18.55;11.13;;;;;;;33.96;73.66;97471.44;5040188;28;20395;-82
2023/08/25 06:30:36;;;;;;;15.40;11.13;;;;;;;33.52;73.71;97465.44;5046440;28;20427;-82
2023/08/25 06:33:02;;;;;;;20.30;10.60;;;;;;;33.03;80.20;97482.50;5030623;28;20025;-82
2023/08/25 06:35:29;;;;;;;20.25;11.00;;;;;;;33.68;76.08;97481.41;5028216;28;20021;-83
2023/08/25 06:37:55;;;;;;;23.40;11.50;;;;;;;34.65;68.98;97470.38;5010963;28;20030;-82
2023/08/25 06:40:20;;;;;;;100.68;15.15;;;;;;;34.56;68.97;97472.69;5045331;28;20342;-83
2023/08/25 06:42:46;;;;;;;31.20;12.10;;;;;;;33.99;70.08;97473.72;5046792;28;20048;-83
2023/08/25 06:45:11;;;;;;;22.00;11.65;;;;;;;33.73;72.70;97480.66;5039053;28;20029;-82
2023/08/25 06:47:38;;;;;;;17.50;11.32;;;;;;;34.59;67.81;97471.34;5028215;28;20029;-83
2023/08/25 06:50:05;;;;;;;15.32;10.43;;;;;;;35.02;64.76;97465.22;5028241;28;20431;-81
2023/08/25 06:52:31;;;;;;;19.30;11.40;;;;;;;35.89;59.73;97460.78;5026297;28;20186;-82
2023/08/25 06:54:57;;;;;;;14.88;9.88;;;;;;;36.60;56.29;97467.28;5017073;28;20037;-82
2023/08/25 06:57:23;;;;;;;23.38;12.35;;;;;;;36.54;55.86;97468.34;5047023;28;20044;-82
2023/08/25 06:59:48;;;;;;;41.03;17.98;;;;;;;36.70;55.33;97468.22;5034200;28;20033;-81
2023/08/25 07:02:14;;;;;;;24.20;12.73;;;;;;;37.19;52.40;97457.00;5026452;28;20033;-82
2023/08/25 07:04:40;;;;;;;13.85;10.85;;;;;;;36.11;55.02;97475.59;5026432;28;20026;-82
2023/08/25 07:07:06;;;;;;;16.65;10.65;;;;;;;36.43;54.14;97470.97;5029380;28;20041;-83
2023/08/25 07:09:32;;;;;;;20.98;11.02;;;;;;;36.41;54.27;97470.41;5040213;28;20128;-83
2023/08/25 07:11:58;;;;;;;15.23;11.45;;;;;;;35.93;56.61;97472.25;5027837;28;20022;-83
2023/08/25 07:14:23;;;;;;;14.65;11.05;;;;;;;35.49;58.16;97477.72;5017954;28;20073;-82
2023/08/25 07:16:49;;;;;;;16.58;10.65;;;;;;;35.48;58.80;97477.97;5029842;28;20023;-83
2023/08/25 07:19:16;;;;;;;26.02;11.88;;;;;;;35.69;57.28;97466.91;5030065;28;20045;-83
2023/08/25 07:21:42;;;;;;;19.00;10.60;;;;;;;36.84;53.20;97469.50;5011415;28;20453;-82
2023/08/25 07:24:07;;;;;;;16.13;10.70;;;;;;;37.01;51.95;97468.56;5026431;28;20086;-83
2023/08/25 07:26:33;;;;;;;16.10;10.65;;;;;;;37.67;49.92;97465.19;5025966;28;20041;-83
2023/08/25 07:28:58;;;;;;;20.20;11.43;;;;;;;38.09;48.47;97462.38;5031496;28;20025;-83
2023/08/25 07:31:24;;;;;;;11.85;10.07;;;;;;;39.38;44.84;97455.72;5045941;28;20049;-82
2023/08/25 07:33:50;;;;;;;13.77;9.65;;;;;;;39.88;43.49;97463.25;5018467;28;20392;-84
2023/08/25 07:36:17;;;;;;;13.30;10.25;;;;;;;39.62;43.13;97456.00;5047434;28;20035;-85
2023/08/25 07:38:43;;;;;;;20.67;10.45;;;;;;;38.75;44.15;97457.88;5035130;28;20543;-84
2023/08/25 07:41:09;;;;;;;14.50;10.32;;;;;;;39.25;44.14;97462.75;5045735;28;20100;-84
2023/08/25 07:43:35;;;;;;;17.92;10.88;;;;;;;40.31;42.46;97467.31;5029363;28;20036;-84
2023/08/25 07:46:00;;;;;;;19.52;11.48;;;;;;;41.06;40.85;97475.38;5046079;28;20017;-86
2023/08/25 07:48:26;;;;;;;19.20;9.77;;;;;;;40.92;39.94;97460.28;5047208;28;20033;-84
2023/08/25 07:50:51;;;;;;;20.10;11.57;;;;;;;41.42;39.34;97461.91;5028263;28;20057;-85
2023/08/25 07:53:17;;;;;;;14.38;10.43;;;;;;;41.43;38.43;97448.69;5006483;28;20053;-85
2023/08/25 07:55:42;;;;;;;20.80;9.55;;;;;;;40.05;39.75;97456.22;5026326;28;20057;-85
2023/08/25 07:58:09;;;;;;;12.52;9.05;;;;;;;41.10;37.80;97450.38;5037711;28;20090;-85
2023/08/25 08:00:37;;;;;;;16.63;8.82;;;;;;;40.14;38.66;97441.63;5030644;28;20469;-85
2023/08/25 08:03:03;;;;;;;16.55;8.43;;;;;;;40.29;38.74;97450.81;5045956;28;20021;-85
2023/08/25 08:05:29;;;;;;;14.15;8.30;;;;;;;40.67;37.24;97442.78;5045485;28;20472;-84
2023/08/25 08:07:55;;;;;;;15.45;8.10;;;;;;;41.86;35.23;97435.63;5026785;28;20025;-83
2023/08/25 08:10:21;;;;;;;12.80;7.03;;;;;;;42.58;33.37;97428.84;5027278;28;20098;-86
2023/08/25 08:12:46;;;;;;;9.50;5.78;;;;;;;42.64;32.98;97424.84;5039447;28;20036;-85
2023/08/25 08:15:13;;;;;;;9.18;6.22;;;;;;;43.45;32.23;97423.56;5029878;28;20103;-85
2023/08/25 08:17:39;;;;;;;13.00;6.40;;;;;;;43.01;31.36;97416.38;5036457;28;20064;-86
2023/08/25 08:20:05;;;;;;;8.40;6.18;;;;;;;42.46;32.60;97418.00;5038062;28;20082;-87
2023/08/25 08:22:31;;;;;;;8.40;5.68;;;;;;;43.02;31.33;97409.63;5046056;28;20024;-86
2023/08/25 08:24:57;;;;;;;8.63;6.13;;;;;;;43.16;31.40;97415.31;5032097;28;20100;-87
2023/08/25 08:27:22;;;;;;;8.77;5.82;;;;;;;43.08;31.04;97408.41;5038937;28;20041;-85
2023/08/25 08:29:48;;;;;;;6.95;6.18;;;;;;;43.22;30.71;97403.63;5043205;28;20028;-87
2023/08/25 08:32:14;;;;;;;13.20;6.97;;;;;;;44.21;30.13;97395.59;5031986;28;20140;-87
2023/08/25 08:34:39;;;;;;;9.43;5.82;;;;;;;44.48;29.14;97399.53;5046108;28;20031;-82
2023/08/25 08:37:08;;;;;;;10.75;5.55;;;;;;;43.74;29.95;97393.16;5033589;28;20412;-83
2023/08/25 08:39:33;;;;;;;7.88;6.15;;;;;;;42.89;30.64;97399.09;5027651;28;20036;-84
2023/08/25 08:42:03;;;;;;;7.15;5.78;;;;;;;41.44;32.21;97397.81;5019319;28;20230;-83
2023/08/25 08:44:35;;;;;;;11.13;8.98;;;;;;;40.91;33.14;97398.81;5044558;28;20547;-82
2023/08/25 08:47:02;;;;;;;11.43;6.22;;;;;;;42.22;31.57;97385.44;5045185;28;20503;-83
2023/08/25 08:49:29;;;;;;;10.50;6.13;;;;;;;42.29;31.32;97388.72;5020342;28;20126;-82
2023/08/25 08:51:55;;;;;;;7.25;5.47;;;;;;;43.19;30.52;97381.72;5029183;28;20464;-83
2023/08/25 08:54:24;;;;;;;7.05;5.82;;;;;;;42.39;30.78;97380.16;5040289;28;20092;-82
2023/08/25 08:56:51;;;;;;;7.80;6.18;;;;;;;42.00;31.90;97375.56;5034016;28;20439;-81
2023/08/25 08:59:16;;;;;;;15.68;6.88;;;;;;;43.11;30.57;97373.97;5033331;28;20041;-82
2023/08/25 09:01:42;;;;;;;6.70;6.00;;;;;;;43.67;29.94;97367.34;5024797;28;20036;-81
2023/08/25 09:04:08;;;;;;;14.70;6.90;;;;;;;43.87;30.12;97368.97;5026687;28;20124;-83
2023/08/25 09:06:36;;;;;;;19.90;6.03;;;;;;;44.02;29.63;97366.66;5041249;27;20037;-83
2023/08/25 09:09:05;;;;;;;10.82;7.90;;;;;;;44.63;29.09;97356.84;5034271;28;20436;-84
2023/08/25 09:11:31;;;;;;;13.02;5.82;;;;;;;45.46;28.00;97359.00;5027549;28;20041;-84
2023/08/25 09:13:57;;;;;;;9.25;5.85;;;;;;;42.07;30.94;97355.53;5036692;28;20120;-83
2023/08/25 09:16:23;;;;;;;19.48;6.63;;;;;;;42.99;30.85;97358.69;5039954;28;20029;-83
2023/08/25 09:18:49;;;;;;;33.95;6.53;;;;;;;44.35;29.42;97355.22;5029958;28;20165;-83
2023/08/25 09:21:21;;;;;;;8.82;5.68;;;;;;;42.85;31.05;97357.78;5032662;28;20108;-83
2023/08/25 09:23:58;;;;;;;13.80;6.10;;;;;;;42.78;31.30;97351.72;5033945;28;20408;-84
2023/08/25 09:26:24;;;;;;;9.73;6.18;;;;;;;42.77;31.21;97348.06;5027480;28;20034;-83
2023/08/25 09:28:53;;;;;;;6.53;5.82;;;;;;;43.03;31.19;97346.53;5035073;28;20233;-81
2023/08/25 09:31:29;;;;;;;9.52;5.75;;;;;;;44.63;29.39;97348.38;5022158;28;20056;-82
2023/08/25 09:34:06;;;;;;;12.65;6.35;;;;;;;44.18;29.80;97338.94;5038395;28;20025;-82
2023/08/25 09:36:32;;;;;;;9.70;6.45;;;;;;;45.31;28.55;97325.50;5010428;28;20030;-82
2023/08/25 09:38:59;;;;;;;9.00;6.03;;;;;;;45.46;28.48;97338.38;5027198;28;20029;-82
2023/08/25 09:41:26;;;;;;;12.02;5.97;;;;;;;45.68;28.29;97335.53;5044822;28;20028;-81
2023/08/25 09:43:58;;;;;;;9.73;6.22;;;;;;;44.57;29.43;97339.22;5046999;28;20085;-82
2023/08/25 09:46:27;;;;;;;6.30;5.63;;;;;;;42.97;31.08;97328.03;5046503;28;20092;-83
2023/08/25 09:49:06;;;;;;;9.60;5.97;;;;;;;44.91;30.08;97330.19;5037670;28;20165;-84
2023/08/25 09:51:35;;;;;;;8.43;6.22;;;;;;;45.27;28.98;97318.78;5044444;28;20013;-84
2023/08/25 09:54:06;;;;;;;10.93;5.80;;;;;;;44.76;29.15;97320.06;5029187;28;20025;-82
2023/08/25 09:56:33;;;;;;;19.83;6.05;;;;;;;45.55;28.19;97303.34;5026831;28;20021;-82
2023/08/25 09:59:00;;;;;;;12.25;6.00;;;;;;;44.38;29.35;97312.25;5026639;28;20085;-81
2023/08/25 10:01:43;;;;;;;12.50;5.90;;;;;;;45.56;28.32;97304.19;5012423;28;20033;-83
2023/08/25 10:04:09;;;;;;;10.60;6.18;;;;;;;46.75;26.71;97294.31;5022592;28;20025;-82
2023/08/25 10:06:37;;;;;;;16.58;5.85;;;;;;;47.31;26.29;97296.91;5038140;28;20766;-83
2023/08/25 10:09:04;;;;;;;34.63;7.60;;;;;;;48.38;25.72;97294.59;5040559;28;20484;-82
2023/08/25 10:11:34;;;;;;;10.18;5.82;;;;;;;47.94;25.81;97286.66;5029371;28;20036;-81
2023/08/25 10:14:04;;;;;;;;;;;;;;;46.49;26.82;97282.97;5029469;28;20403;-73
2023/08/25 10:16:31;;;;;;;6.25;5.65;;;;;;;46.64;26.51;97278.81;5042671;27;19920;-73
2023/08/25 10:18:58;;;;;;;6.50;5.45;;;;;;;46.40;26.63;97267.94;5026256;28;20056;-74
2023/08/25 10:21:24;;;;;;;11.02;6.05;;;;;;;46.62;26.75;97270.66;5026293;28;20037;-74
2023/08/25 10:23:52;;;;;;;12.05;5.88;;;;;;;47.03;26.06;97267.28;5026319;28;20029;-74
2023/08/25 10:26:18;;;;;;;7.80;4.90;;;;;;;46.75;26.26;97274.47;5025996;28;20086;-75
2023/08/25 10:28:44;;;;;;;6.18;5.53;;;;;;;47.22;26.31;97270.59;5026256;28;20030;-73
2023/08/25 10:31:10;;;;;;;19.65;5.90;;;;;;;47.22;26.19;97269.75;5009756;28;20042;-74
2023/08/25 10:33:50;;;;;;;9.45;5.57;;;;;;;47.87;26.08;97272.19;5025919;28;20036;-74
2023/08/25 10:36:25;;;;;;;31.77;6.75;;;;;;;48.56;25.00;97271.69;5026434;28;20144;-73
2023/08/25 10:38:59;;;;;;;20.42;6.20;;;;;;;48.16;25.39;97277.84;5025988;28;20033;-73
2023/08/25 10:41:27;;;;;;;10.75;5.63;;;;;;;48.63;25.37;97272.84;5027160;28;20025;-74
2023/08/25 10:43:54;;;;;;;6.15;5.55;;;;;;;49.19;24.58;97257.09;5027330;28;20056;-74
2023/08/25 10:46:22;;;;;;;9.60;5.75;;;;;;;47.70;25.49;97249.56;5025843;28;20037;-74
2023/08/25 10:48:48;;;;;;;11.45;6.03;;;;;;;47.80;25.71;97257.69;5025953;28;20030;-73
2023/08/25 10:51:19;;;;;;;8.10;5.32;;;;;;;45.84;26.87;97249.03;5026192;28;20400;-73
2023/08/25 10:53:45;;;;;;;;;;;;;;;46.05;26.70;97252.13;5009820;28;20048;-72
2023/08/25 10:56:16;;;;;;;7.68;5.55;;;;;;;45.23;27.59;97245.13;5027095;28;19921;-73
2023/08/25 10:58:42;;;;;;;16.45;5.63;;;;;;;47.31;25.93;97250.72;5026650;28;20033;-73
2023/08/25 11:01:07;;;;;;;7.03;5.57;;;;;;;47.30;25.25;97247.03;5025865;28;20505;-73
2023/08/25 11:04:10;;;;;;;13.75;5.60;;;;;;;47.60;25.41;97247.94;5025575;28;20104;-74
2023/08/25 11:06:38;;;;;;;8.27;5.63;;;;;;;48.12;24.97;97256.97;5025280;28;20026;-74
2023/08/25 11:09:03;;;;;;;6.35;5.70;;;;;;;47.01;25.83;97237.63;5026871;28;20041;-73
2023/08/25 11:11:30;;;;;;;12.38;5.82;;;;;;;46.09;26.59;97242.63;5026785;28;20469;-73
2023/08/25 11:13:57;;;;;;;6.80;5.43;;;;;;;46.92;25.95;97239.66;5025729;28;20052;-73
2023/08/25 11:16:23;;;;;;;8.85;5.05;;;;;;;46.35;25.56;97236.16;5029262;28;20022;-73